sensor_id;sensor_type;location;lat;lon;timestamp;P1;durP1;ratioP1;P2;durP2;ratioP2
52480;SDS011;38393;52.404;13.532;2023-03-23T00:02:11;5.13;;;2.40;;
52480;SDS011;38393;52.404;13.532;2023-03-23T00:04:36;3.57;;;2.07;;
52480;SDS011;38393;52.404;13.532;2023-03-23T00:07:02;4.50;;;2.33;;
52480;SDS011;38393;52.404;13.532;2023-03-23T00:09:28;4.80;;;2.70;;
52480;SDS011;38393;52.404;13.532;2023-03-23T00:11:54;4.37;;;2.60;;
52480;SDS011;38393;52.404;13.532;2023-03-23T00:14:22;3.87;;;2.30;;
52480;SDS011;38393;52.404;13.532;2023-03-23T00:16:48;4.07;;;2.37;;
52480;SDS011;38393;52.404;13.532;2023-03-23T00:19:15;3.93;;;2.17;;
52480;SDS011;38393;52.404;13.532;2023-03-23T00:21:44;2.70;;;2.17;;
52480;SDS011;38393;52.404;13.532;2023-03-23T00:24:14;3.97;;;2.70;;
52480;SDS011;38393;52.404;13.532;2023-03-23T00:26:42;4.90;;;2.60;;
52480;SDS011;38393;52.404;13.532;2023-03-23T00:29:13;4.57;;;2.60;;
52480;SDS011;38393;52.404;13.532;2023-03-23T00:31:44;4.77;;;2.80;;
52480;SDS011;38393;52.404;13.532;2023-03-23T00:34:20;4.50;;;2.60;;
52480;SDS011;38393;52.404;13.532;2023-03-23T00:36:50;5.03;;;2.60;;
52480;SDS011;38393;52.404;13.532;2023-03-23T00:39:21;3.13;;;2.57;;
52480;SDS011;38393;52.404;13.532;2023-03-23T00:41:49;3.60;;;2.60;;
52480;SDS011;38393;52.404;13.532;2023-03-23T00:44:15;6.83;;;3.10;;
52480;SDS011;38393;52.404;13.532;2023-03-23T00:46:44;4.00;;;2.47;;
52480;SDS011;38393;52.404;13.532;2023-03-23T00:49:14;4.63;;;2.57;;
52480;SDS011;38393;52.404;13.532;2023-03-23T00:51:41;4.03;;;2.63;;
52480;SDS011;38393;52.404;13.532;2023-03-23T00:54:07;3.90;;;2.70;;
52480;SDS011;38393;52.404;13.532;2023-03-23T00:56:33;4.67;;;2.67;;
52480;SDS011;38393;52.404;13.532;2023-03-23T00:58:59;5.37;;;2.90;;
52480;SDS011;38393;52.404;13.532;2023-03-23T01:01:25;3.33;;;2.70;;
52480;SDS011;38393;52.404;13.532;2023-03-23T01:03:51;3.63;;;2.83;;
52480;SDS011;38393;52.404;13.532;2023-03-23T01:06:18;3.77;;;2.70;;
52480;SDS011;38393;52.404;13.532;2023-03-23T01:08:43;4.27;;;2.40;;
52480;SDS011;38393;52.404;13.532;2023-03-23T01:11:13;3.30;;;2.67;;
52480;SDS011;38393;52.404;13.532;2023-03-23T01:13:40;3.63;;;2.70;;
52480;SDS011;38393;52.404;13.532;2023-03-23T01:16:06;5.27;;;2.80;;
52480;SDS011;38393;52.404;13.532;2023-03-23T01:18:32;3.23;;;2.70;;
52480;SDS011;38393;52.404;13.532;2023-03-23T01:21:03;5.40;;;2.57;;
52480;SDS011;38393;52.404;13.532;2023-03-23T01:23:32;4.13;;;2.60;;
52480;SDS011;38393;52.404;13.532;2023-03-23T01:26:02;3.27;;;2.60;;
52480;SDS011;38393;52.404;13.532;2023-03-23T01:28:29;2.83;;;2.53;;
52480;SDS011;38393;52.404;13.532;2023-03-23T01:30:58;2.90;;;2.60;;
52480;SDS011;38393;52.404;13.532;2023-03-23T01:33:25;4.37;;;2.40;;
52480;SDS011;38393;52.404;13.532;2023-03-23T01:35:51;3.97;;;2.57;;
52480;SDS011;38393;52.404;13.532;2023-03-23T01:38:16;3.97;;;2.60;;
52480;SDS011;38393;52.404;13.532;2023-03-23T01:40:42;3.73;;;2.43;;
52480;SDS011;38393;52.404;13.532;2023-03-23T01:43:10;4.50;;;2.80;;
52480;SDS011;38393;52.404;13.532;2023-03-23T01:45:39;5.07;;;2.50;;
52480;SDS011;38393;52.404;13.532;2023-03-23T01:48:07;3.07;;;2.67;;
52480;SDS011;38393;52.404;13.532;2023-03-23T01:50:56;3.07;;;2.50;;
52480;SDS011;38393;52.404;13.532;2023-03-23T01:53:28;5.70;;;2.67;;
52480;SDS011;38393;52.404;13.532;2023-03-23T01:55:58;3.50;;;2.60;;
52480;SDS011;38393;52.404;13.532;2023-03-23T01:58:26;3.77;;;2.73;;
52480;SDS011;38393;52.404;13.532;2023-03-23T02:00:54;4.63;;;2.63;;
52480;SDS011;38393;52.404;13.532;2023-03-23T02:03:21;4.10;;;2.80;;
52480;SDS011;38393;52.404;13.532;2023-03-23T02:05:48;3.87;;;2.80;;
52480;SDS011;38393;52.404;13.532;2023-03-23T02:08:14;4.57;;;2.60;;
52480;SDS011;38393;52.404;13.532;2023-03-23T02:10:43;3.00;;;2.53;;
52480;SDS011;38393;52.404;13.532;2023-03-23T02:13:09;4.00;;;2.50;;
52480;SDS011;38393;52.404;13.532;2023-03-23T02:15:44;2.67;;;2.10;;
52480;SDS011;38393;52.404;13.532;2023-03-23T02:18:23;3.80;;;2.50;;
52480;SDS011;38393;52.404;13.532;2023-03-23T02:23:51;3.00;;;2.50;;
52480;SDS011;38393;52.404;13.532;2023-03-23T02:26:53;3.20;;;2.57;;
52480;SDS011;38393;52.404;13.532;2023-03-23T02:29:43;4.03;;;2.30;;
52480;SDS011;38393;52.404;13.532;2023-03-23T02:32:39;3.50;;;2.57;;
52480;SDS011;38393;52.404;13.532;2023-03-23T02:35:30;4.57;;;2.87;;
52480;SDS011;38393;52.404;13.532;2023-03-23T02:38:01;3.70;;;2.73;;
52480;SDS011;38393;52.404;13.532;2023-03-23T02:40:43;4.20;;;2.47;;
52480;SDS011;38393;52.404;13.532;2023-03-23T02:43:15;5.60;;;2.70;;
52480;SDS011;38393;52.404;13.532;2023-03-23T02:45:45;4.27;;;2.37;;
52480;SDS011;38393;52.404;13.532;2023-03-23T02:48:11;4.23;;;2.40;;
52480;SDS011;38393;52.404;13.532;2023-03-23T02:50:40;4.23;;;2.37;;
52480;SDS011;38393;52.404;13.532;2023-03-23T02:53:10;4.83;;;2.23;;
52480;SDS011;38393;52.404;13.532;2023-03-23T02:55:39;3.73;;;2.50;;
52480;SDS011;38393;52.404;13.532;2023-03-23T02:58:08;3.23;;;2.33;;
52480;SDS011;38393;52.404;13.532;2023-03-23T03:00:34;4.90;;;2.40;;
52480;SDS011;38393;52.404;13.532;2023-03-23T03:03:00;3.37;;;2.40;;
52480;SDS011;38393;52.404;13.532;2023-03-23T03:05:34;3.33;;;2.10;;
52480;SDS011;38393;52.404;13.532;2023-03-23T03:11:11;3.03;;;2.17;;
52480;SDS011;38393;52.404;13.532;2023-03-23T03:13:46;4.40;;;2.30;;
52480;SDS011;38393;52.404;13.532;2023-03-23T03:16:22;3.10;;;2.20;;
52480;SDS011;38393;52.404;13.532;2023-03-23T03:18:56;5.87;;;2.30;;
52480;SDS011;38393;52.404;13.532;2023-03-23T03:21:30;2.83;;;2.20;;
52480;SDS011;38393;52.404;13.532;2023-03-23T03:24:00;3.90;;;2.50;;
52480;SDS011;38393;52.404;13.532;2023-03-23T03:26:28;4.67;;;2.20;;
52480;SDS011;38393;52.404;13.532;2023-03-23T03:28:57;3.00;;;2.03;;
52480;SDS011;38393;52.404;13.532;2023-03-23T03:31:24;3.53;;;2.27;;
52480;SDS011;38393;52.404;13.532;2023-03-23T03:33:54;4.17;;;2.03;;
52480;SDS011;38393;52.404;13.532;2023-03-23T03:36:24;2.60;;;1.90;;
52480;SDS011;38393;52.404;13.532;2023-03-23T03:38:52;2.73;;;2.10;;
52480;SDS011;38393;52.404;13.532;2023-03-23T03:41:18;5.80;;;2.10;;
52480;SDS011;38393;52.404;13.532;2023-03-23T03:43:44;3.10;;;2.07;;
52480;SDS011;38393;52.404;13.532;2023-03-23T03:46:10;4.27;;;2.03;;
52480;SDS011;38393;52.404;13.532;2023-03-23T03:48:36;2.90;;;1.90;;
52480;SDS011;38393;52.404;13.532;2023-03-23T03:51:02;3.60;;;2.00;;
52480;SDS011;38393;52.404;13.532;2023-03-23T03:53:28;2.73;;;2.07;;
52480;SDS011;38393;52.404;13.532;2023-03-23T03:55:53;3.70;;;2.10;;
52480;SDS011;38393;52.404;13.532;2023-03-23T03:58:24;3.07;;;2.03;;
52480;SDS011;38393;52.404;13.532;2023-03-23T04:00:56;3.30;;;2.20;;
52480;SDS011;38393;52.404;13.532;2023-03-23T04:03:23;4.30;;;2.10;;
52480;SDS011;38393;52.404;13.532;2023-03-23T04:05:49;2.93;;;2.13;;
52480;SDS011;38393;52.404;13.532;2023-03-23T04:08:16;5.17;;;2.10;;
52480;SDS011;38393;52.404;13.532;2023-03-23T04:10:42;3.00;;;2.13;;
52480;SDS011;38393;52.404;13.532;2023-03-23T04:13:08;7.37;;;2.10;;
52480;SDS011;38393;52.404;13.532;2023-03-23T04:15:33;4.93;;;2.07;;
52480;SDS011;38393;52.404;13.532;2023-03-23T04:17:59;3.80;;;2.30;;
52480;SDS011;38393;52.404;13.532;2023-03-23T04:20:24;3.57;;;2.03;;
52480;SDS011;38393;52.404;13.532;2023-03-23T04:22:51;2.80;;;2.10;;
52480;SDS011;38393;52.404;13.532;2023-03-23T04:25:18;4.27;;;2.03;;
52480;SDS011;38393;52.404;13.532;2023-03-23T04:27:48;4.07;;;2.17;;
52480;SDS011;38393;52.404;13.532;2023-03-23T04:30:22;3.60;;;2.10;;
52480;SDS011;38393;52.404;13.532;2023-03-23T04:32:49;4.63;;;2.13;;
52480;SDS011;38393;52.404;13.532;2023-03-23T04:35:18;3.53;;;2.40;;
52480;SDS011;38393;52.404;13.532;2023-03-23T04:37:44;2.53;;;2.23;;
52480;SDS011;38393;52.404;13.532;2023-03-23T04:40:11;2.90;;;2.30;;
52480;SDS011;38393;52.404;13.532;2023-03-23T04:42:39;3.77;;;2.23;;
52480;SDS011;38393;52.404;13.532;2023-03-23T04:45:06;3.97;;;2.47;;
52480;SDS011;38393;52.404;13.532;2023-03-23T04:47:34;4.87;;;2.80;;
52480;SDS011;38393;52.404;13.532;2023-03-23T04:50:06;2.83;;;2.23;;
52480;SDS011;38393;52.404;13.532;2023-03-23T04:52:37;3.63;;;2.60;;
52480;SDS011;38393;52.404;13.532;2023-03-23T04:55:05;6.43;;;2.80;;
52480;SDS011;38393;52.404;13.532;2023-03-23T04:57:32;4.40;;;2.70;;
52480;SDS011;38393;52.404;13.532;2023-03-23T04:59:59;6.00;;;2.70;;
52480;SDS011;38393;52.404;13.532;2023-03-23T05:02:33;3.37;;;2.50;;
52480;SDS011;38393;52.404;13.532;2023-03-23T05:05:04;3.17;;;2.50;;
52480;SDS011;38393;52.404;13.532;2023-03-23T05:07:33;3.90;;;2.53;;
52480;SDS011;38393;52.404;13.532;2023-03-23T05:09:59;3.53;;;2.60;;
52480;SDS011;38393;52.404;13.532;2023-03-23T05:12:24;4.83;;;2.73;;
52480;SDS011;38393;52.404;13.532;2023-03-23T05:14:50;2.60;;;2.03;;
52480;SDS011;38393;52.404;13.532;2023-03-23T05:17:16;4.17;;;2.10;;
52480;SDS011;38393;52.404;13.532;2023-03-23T05:19:43;5.30;;;2.37;;
52480;SDS011;38393;52.404;13.532;2023-03-23T05:22:12;4.33;;;2.47;;
52480;SDS011;38393;52.404;13.532;2023-03-23T05:24:39;2.10;;;1.77;;
52480;SDS011;38393;52.404;13.532;2023-03-23T05:27:05;4.37;;;2.30;;
52480;SDS011;38393;52.404;13.532;2023-03-23T05:29:32;2.80;;;2.13;;
52480;SDS011;38393;52.404;13.532;2023-03-23T05:32:00;3.20;;;2.33;;
52480;SDS011;38393;52.404;13.532;2023-03-23T05:34:27;2.57;;;2.13;;
52480;SDS011;38393;52.404;13.532;2023-03-23T05:36:53;3.90;;;2.20;;
52480;SDS011;38393;52.404;13.532;2023-03-23T05:39:20;4.43;;;2.40;;
52480;SDS011;38393;52.404;13.532;2023-03-23T05:41:46;3.90;;;2.30;;
52480;SDS011;38393;52.404;13.532;2023-03-23T05:44:11;4.70;;;2.20;;
52480;SDS011;38393;52.404;13.532;2023-03-23T05:46:38;5.60;;;2.60;;
52480;SDS011;38393;52.404;13.532;2023-03-23T05:49:04;4.37;;;2.40;;
52480;SDS011;38393;52.404;13.532;2023-03-23T05:51:29;5.23;;;2.43;;
52480;SDS011;38393;52.404;13.532;2023-03-23T05:53:55;3.70;;;2.30;;
52480;SDS011;38393;52.404;13.532;2023-03-23T05:56:21;3.83;;;2.20;;
52480;SDS011;38393;52.404;13.532;2023-03-23T05:58:46;4.33;;;2.50;;
52480;SDS011;38393;52.404;13.532;2023-03-23T06:01:12;4.67;;;2.43;;
52480;SDS011;38393;52.404;13.532;2023-03-23T06:03:39;4.87;;;2.70;;
52480;SDS011;38393;52.404;13.532;2023-03-23T06:06:05;4.27;;;2.50;;
52480;SDS011;38393;52.404;13.532;2023-03-23T06:08:31;3.07;;;2.20;;
52480;SDS011;38393;52.404;13.532;2023-03-23T06:10:56;3.70;;;2.67;;
52480;SDS011;38393;52.404;13.532;2023-03-23T06:13:22;5.53;;;2.40;;
52480;SDS011;38393;52.404;13.532;2023-03-23T06:15:48;5.63;;;2.53;;
52480;SDS011;38393;52.404;13.532;2023-03-23T06:18:13;6.87;;;2.50;;
52480;SDS011;38393;52.404;13.532;2023-03-23T06:20:39;8.00;;;2.80;;
52480;SDS011;38393;52.404;13.532;2023-03-23T06:23:05;4.07;;;2.90;;
52480;SDS011;38393;52.404;13.532;2023-03-23T06:25:31;4.43;;;2.80;;
52480;SDS011;38393;52.404;13.532;2023-03-23T06:27:58;4.40;;;2.60;;
52480;SDS011;38393;52.404;13.532;2023-03-23T06:30:23;7.63;;;2.90;;
52480;SDS011;38393;52.404;13.532;2023-03-23T06:32:49;6.37;;;3.27;;
52480;SDS011;38393;52.404;13.532;2023-03-23T06:35:15;7.97;;;3.43;;
52480;SDS011;38393;52.404;13.532;2023-03-23T06:37:41;8.07;;;3.37;;
52480;SDS011;38393;52.404;13.532;2023-03-23T06:40:07;9.10;;;3.53;;
52480;SDS011;38393;52.404;13.532;2023-03-23T06:42:33;9.10;;;2.93;;
52480;SDS011;38393;52.404;13.532;2023-03-23T06:44:59;6.47;;;3.33;;
52480;SDS011;38393;52.404;13.532;2023-03-23T06:47:26;5.50;;;3.50;;
52480;SDS011;38393;52.404;13.532;2023-03-23T06:49:55;5.90;;;3.30;;
52480;SDS011;38393;52.404;13.532;2023-03-23T06:52:21;6.60;;;3.70;;
52480;SDS011;38393;52.404;13.532;2023-03-23T06:54:50;4.47;;;3.20;;
52480;SDS011;38393;52.404;13.532;2023-03-23T06:57:17;8.23;;;3.73;;
52480;SDS011;38393;52.404;13.532;2023-03-23T06:59:43;7.53;;;3.90;;
52480;SDS011;38393;52.404;13.532;2023-03-23T07:02:10;7.90;;;3.90;;
52480;SDS011;38393;52.404;13.532;2023-03-23T07:04:37;10.87;;;4.10;;
52480;SDS011;38393;52.404;13.532;2023-03-23T07:07:03;8.23;;;3.57;;
52480;SDS011;38393;52.404;13.532;2023-03-23T07:09:29;12.27;;;4.00;;
52480;SDS011;38393;52.404;13.532;2023-03-23T07:11:56;8.20;;;3.43;;
52480;SDS011;38393;52.404;13.532;2023-03-23T07:14:21;6.20;;;3.57;;
52480;SDS011;38393;52.404;13.532;2023-03-23T07:16:47;6.20;;;3.83;;
52480;SDS011;38393;52.404;13.532;2023-03-23T07:19:13;8.90;;;3.70;;
52480;SDS011;38393;52.404;13.532;2023-03-23T07:21:38;5.40;;;3.30;;
52480;SDS011;38393;52.404;13.532;2023-03-23T07:24:04;6.17;;;3.17;;
52480;SDS011;38393;52.404;13.532;2023-03-23T07:26:29;7.33;;;3.73;;
52480;SDS011;38393;52.404;13.532;2023-03-23T07:28:55;5.80;;;3.57;;
52480;SDS011;38393;52.404;13.532;2023-03-23T07:31:20;6.87;;;3.40;;
52480;SDS011;38393;52.404;13.532;2023-03-23T07:33:46;6.40;;;3.37;;
52480;SDS011;38393;52.404;13.532;2023-03-23T07:36:12;5.87;;;3.30;;
52480;SDS011;38393;52.404;13.532;2023-03-23T07:38:38;5.80;;;3.43;;
52480;SDS011;38393;52.404;13.532;2023-03-23T07:41:03;7.70;;;3.67;;
52480;SDS011;38393;52.404;13.532;2023-03-23T07:43:30;5.50;;;3.50;;
52480;SDS011;38393;52.404;13.532;2023-03-23T07:45:55;9.93;;;3.40;;
52480;SDS011;38393;52.404;13.532;2023-03-23T07:48:21;4.87;;;2.97;;
52480;SDS011;38393;52.404;13.532;2023-03-23T07:50:47;6.73;;;3.13;;
52480;SDS011;38393;52.404;13.532;2023-03-23T07:53:12;7.73;;;3.63;;
52480;SDS011;38393;52.404;13.532;2023-03-23T07:55:38;8.60;;;3.87;;
52480;SDS011;38393;52.404;13.532;2023-03-23T07:58:04;8.37;;;3.37;;
52480;SDS011;38393;52.404;13.532;2023-03-23T08:00:29;5.67;;;3.00;;
52480;SDS011;38393;52.404;13.532;2023-03-23T08:02:56;5.87;;;2.80;;
52480;SDS011;38393;52.404;13.532;2023-03-23T08:05:22;3.73;;;2.70;;
52480;SDS011;38393;52.404;13.532;2023-03-23T08:07:50;6.47;;;3.03;;
52480;SDS011;38393;52.404;13.532;2023-03-23T08:10:16;5.53;;;2.90;;
52480;SDS011;38393;52.404;13.532;2023-03-23T08:12:43;6.30;;;3.10;;
52480;SDS011;38393;52.404;13.532;2023-03-23T08:15:10;8.03;;;3.50;;
52480;SDS011;38393;52.404;13.532;2023-03-23T08:17:40;5.53;;;3.40;;
52480;SDS011;38393;52.404;13.532;2023-03-23T08:20:06;6.67;;;3.20;;
52480;SDS011;38393;52.404;13.532;2023-03-23T08:22:37;5.70;;;3.10;;
52480;SDS011;38393;52.404;13.532;2023-03-23T08:25:08;5.47;;;3.00;;
52480;SDS011;38393;52.404;13.532;2023-03-23T08:27:35;8.07;;;3.17;;
52480;SDS011;38393;52.404;13.532;2023-03-23T08:30:01;4.53;;;3.03;;
52480;SDS011;38393;52.404;13.532;2023-03-23T08:32:27;4.60;;;3.00;;
52480;SDS011;38393;52.404;13.532;2023-03-23T08:34:54;4.27;;;2.60;;
52480;SDS011;38393;52.404;13.532;2023-03-23T08:37:19;5.00;;;2.60;;
52480;SDS011;38393;52.404;13.532;2023-03-23T08:39:45;4.27;;;2.70;;
52480;SDS011;38393;52.404;13.532;2023-03-23T08:42:10;4.70;;;2.50;;
52480;SDS011;38393;52.404;13.532;2023-03-23T08:44:36;4.03;;;2.50;;
52480;SDS011;38393;52.404;13.532;2023-03-23T08:47:02;6.50;;;2.80;;
52480;SDS011;38393;52.404;13.532;2023-03-23T08:49:30;4.60;;;2.80;;
52480;SDS011;38393;52.404;13.532;2023-03-23T08:51:57;3.60;;;2.60;;
52480;SDS011;38393;52.404;13.532;2023-03-23T08:54:23;3.10;;;2.47;;
52480;SDS011;38393;52.404;13.532;2023-03-23T08:56:49;4.27;;;2.57;;
52480;SDS011;38393;52.404;13.532;2023-03-23T08:59:14;4.67;;;2.70;;
52480;SDS011;38393;52.404;13.532;2023-03-23T09:01:40;4.63;;;2.77;;
52480;SDS011;38393;52.404;13.532;2023-03-23T09:04:06;4.47;;;2.70;;
52480;SDS011;38393;52.404;13.532;2023-03-23T09:06:34;4.47;;;2.87;;
52480;SDS011;38393;52.404;13.532;2023-03-23T09:09:00;4.83;;;2.63;;
52480;SDS011;38393;52.404;13.532;2023-03-23T09:11:27;5.47;;;2.90;;
52480;SDS011;38393;52.404;13.532;2023-03-23T09:13:52;3.73;;;2.80;;
52480;SDS011;38393;52.404;13.532;2023-03-23T09:16:18;3.53;;;2.43;;
52480;SDS011;38393;52.404;13.532;2023-03-23T09:18:43;6.13;;;2.70;;
52480;SDS011;38393;52.404;13.532;2023-03-23T09:21:09;5.13;;;2.70;;
52480;SDS011;38393;52.404;13.532;2023-03-23T09:23:35;5.67;;;2.87;;
52480;SDS011;38393;52.404;13.532;2023-03-23T09:26:01;3.90;;;2.80;;
52480;SDS011;38393;52.404;13.532;2023-03-23T09:28:27;4.00;;;2.70;;
52480;SDS011;38393;52.404;13.532;2023-03-23T09:30:54;4.03;;;2.30;;
52480;SDS011;38393;52.404;13.532;2023-03-23T09:33:22;3.97;;;2.50;;
52480;SDS011;38393;52.404;13.532;2023-03-23T09:35:48;4.20;;;2.60;;
52480;SDS011;38393;52.404;13.532;2023-03-23T09:38:13;3.27;;;2.13;;
52480;SDS011;38393;52.404;13.532;2023-03-23T09:40:43;4.57;;;2.40;;
52480;SDS011;38393;52.404;13.532;2023-03-23T09:43:18;3.83;;;2.40;;
52480;SDS011;38393;52.404;13.532;2023-03-23T09:46:08;4.47;;;2.40;;
52480;SDS011;38393;52.404;13.532;2023-03-23T09:48:57;4.23;;;2.03;;
52480;SDS011;38393;52.404;13.532;2023-03-23T09:53:59;3.93;;;1.97;;
52480;SDS011;38393;52.404;13.532;2023-03-23T09:56:30;3.90;;;2.00;;
52480;SDS011;38393;52.404;13.532;2023-03-23T09:58:59;3.27;;;2.13;;
52480;SDS011;38393;52.404;13.532;2023-03-23T10:01:56;4.57;;;1.90;;
52480;SDS011;38393;52.404;13.532;2023-03-23T10:07:09;2.80;;;1.47;;
52480;SDS011;38393;52.404;13.532;2023-03-23T10:09:38;2.87;;;1.60;;
52480;SDS011;38393;52.404;13.532;2023-03-23T10:15:10;3.23;;;1.70;;
52480;SDS011;38393;52.404;13.532;2023-03-23T10:17:54;2.73;;;1.63;;
52480;SDS011;38393;52.404;13.532;2023-03-23T10:23:01;3.00;;;1.70;;
52480;SDS011;38393;52.404;13.532;2023-03-23T10:25:36;3.53;;;1.50;;
52480;SDS011;38393;52.404;13.532;2023-03-23T10:28:08;3.17;;;1.50;;
52480;SDS011;38393;52.404;13.532;2023-03-23T10:30:41;2.30;;;1.57;;
52480;SDS011;38393;52.404;13.532;2023-03-23T10:33:17;3.40;;;1.73;;
52480;SDS011;38393;52.404;13.532;2023-03-23T10:35:55;2.87;;;1.53;;
52480;SDS011;38393;52.404;13.532;2023-03-23T10:38:26;3.20;;;1.60;;
52480;SDS011;38393;52.404;13.532;2023-03-23T10:41:19;2.77;;;1.67;;
52480;SDS011;38393;52.404;13.532;2023-03-23T10:43:45;2.87;;;1.40;;
52480;SDS011;38393;52.404;13.532;2023-03-23T10:49:02;1.90;;;1.60;;
52480;SDS011;38393;52.404;13.532;2023-03-23T10:51:33;3.63;;;1.60;;
52480;SDS011;38393;52.404;13.532;2023-03-23T10:54:02;2.50;;;1.57;;
52480;SDS011;38393;52.404;13.532;2023-03-23T10:56:35;3.40;;;1.70;;
52480;SDS011;38393;52.404;13.532;2023-03-23T10:59:15;5.33;;;1.97;;
52480;SDS011;38393;52.404;13.532;2023-03-23T11:01:47;3.17;;;1.80;;
52480;SDS011;38393;52.404;13.532;2023-03-23T11:04:17;4.63;;;1.80;;
52480;SDS011;38393;52.404;13.532;2023-03-23T11:06:44;4.77;;;1.77;;
52480;SDS011;38393;52.404;13.532;2023-03-23T11:09:14;3.33;;;1.60;;
52480;SDS011;38393;52.404;13.532;2023-03-23T11:11:43;3.10;;;1.90;;
52480;SDS011;38393;52.404;13.532;2023-03-23T11:14:17;3.20;;;1.77;;
52480;SDS011;38393;52.404;13.532;2023-03-23T11:17:05;4.47;;;1.70;;
52480;SDS011;38393;52.404;13.532;2023-03-23T11:19:32;2.80;;;1.60;;
52480;SDS011;38393;52.404;13.532;2023-03-23T11:22:07;4.57;;;1.83;;
52480;SDS011;38393;52.404;13.532;2023-03-23T11:24:40;3.80;;;1.80;;
52480;SDS011;38393;52.404;13.532;2023-03-23T11:27:08;2.53;;;1.73;;
52480;SDS011;38393;52.404;13.532;2023-03-23T11:29:35;5.17;;;1.67;;
52480;SDS011;38393;52.404;13.532;2023-03-23T11:32:11;3.00;;;1.67;;
52480;SDS011;38393;52.404;13.532;2023-03-23T11:34:41;3.83;;;2.10;;
52480;SDS011;38393;52.404;13.532;2023-03-23T11:37:16;2.90;;;1.70;;
52480;SDS011;38393;52.404;13.532;2023-03-23T11:39:48;4.20;;;1.70;;
52480;SDS011;38393;52.404;13.532;2023-03-23T11:42:20;2.30;;;1.67;;
52480;SDS011;38393;52.404;13.532;2023-03-23T11:44:53;2.57;;;1.70;;
52480;SDS011;38393;52.404;13.532;2023-03-23T11:52:36;5.03;;;1.60;;
52480;SDS011;38393;52.404;13.532;2023-03-23T11:55:21;2.70;;;1.57;;
52480;SDS011;38393;52.404;13.532;2023-03-23T11:57:51;2.03;;;1.60;;
52480;SDS011;38393;52.404;13.532;2023-03-23T12:00:19;4.20;;;1.90;;
52480;SDS011;38393;52.404;13.532;2023-03-23T12:05:57;4.53;;;1.73;;
52480;SDS011;38393;52.404;13.532;2023-03-23T12:08:33;2.53;;;1.70;;
52480;SDS011;38393;52.404;13.532;2023-03-23T12:11:31;3.27;;;1.70;;
52480;SDS011;38393;52.404;13.532;2023-03-23T12:14:29;2.20;;;1.60;;
52480;SDS011;38393;52.404;13.532;2023-03-23T12:17:11;2.70;;;1.47;;
52480;SDS011;38393;52.404;13.532;2023-03-23T12:25:35;2.97;;;1.57;;
52480;SDS011;38393;52.404;13.532;2023-03-23T12:28:21;8.63;;;2.00;;
52480;SDS011;38393;52.404;13.532;2023-03-23T12:34:01;4.00;;;1.60;;
52480;SDS011;38393;52.404;13.532;2023-03-23T12:37:01;2.77;;;1.80;;
52480;SDS011;38393;52.404;13.532;2023-03-23T12:42:32;3.47;;;1.60;;
52480;SDS011;38393;52.404;13.532;2023-03-23T12:45:19;5.00;;;1.73;;
52480;SDS011;38393;52.404;13.532;2023-03-23T12:47:55;3.07;;;1.70;;
52480;SDS011;38393;52.404;13.532;2023-03-23T12:50:30;4.40;;;1.87;;
52480;SDS011;38393;52.404;13.532;2023-03-23T12:53:24;3.93;;;1.70;;
52480;SDS011;38393;52.404;13.532;2023-03-23T12:56:05;3.50;;;2.00;;
52480;SDS011;38393;52.404;13.532;2023-03-23T12:58:42;3.10;;;1.90;;
52480;SDS011;38393;52.404;13.532;2023-03-23T13:01:16;5.20;;;2.00;;
52480;SDS011;38393;52.404;13.532;2023-03-23T13:04:02;10.57;;;1.90;;
52480;SDS011;38393;52.404;13.532;2023-03-23T13:11:39;3.10;;;2.07;;
52480;SDS011;38393;52.404;13.532;2023-03-23T13:14:21;4.10;;;1.97;;
52480;SDS011;38393;52.404;13.532;2023-03-23T13:23:15;3.37;;;1.80;;
52480;SDS011;38393;52.404;13.532;2023-03-23T13:28:34;3.33;;;1.83;;
52480;SDS011;38393;52.404;13.532;2023-03-23T13:31:23;5.57;;;1.80;;
52480;SDS011;38393;52.404;13.532;2023-03-23T13:33:59;2.53;;;1.60;;
52480;SDS011;38393;52.404;13.532;2023-03-23T13:36:37;3.50;;;2.00;;
52480;SDS011;38393;52.404;13.532;2023-03-23T13:39:06;5.70;;;1.87;;
52480;SDS011;38393;52.404;13.532;2023-03-23T13:41:49;3.53;;;1.90;;
52480;SDS011;38393;52.404;13.532;2023-03-23T13:44:54;4.53;;;1.53;;
52480;SDS011;38393;52.404;13.532;2023-03-23T13:50:02;7.03;;;1.97;;
52480;SDS011;38393;52.404;13.532;2023-03-23T14:03:01;3.33;;;1.80;;
52480;SDS011;38393;52.404;13.532;2023-03-23T14:05:31;5.03;;;2.07;;
52480;SDS011;38393;52.404;13.532;2023-03-23T14:10:43;2.93;;;1.80;;
52480;SDS011;38393;52.404;13.532;2023-03-23T14:13:17;4.20;;;1.90;;
52480;SDS011;38393;52.404;13.532;2023-03-23T14:15:53;4.23;;;1.77;;
52480;SDS011;38393;52.404;13.532;2023-03-23T14:18:25;4.30;;;1.90;;
52480;SDS011;38393;52.404;13.532;2023-03-23T14:20:55;5.37;;;1.60;;
52480;SDS011;38393;52.404;13.532;2023-03-23T14:23:20;3.88;;;2.00;;
52480;SDS011;38393;52.404;13.532;2023-03-23T14:25:55;4.15;;;2.05;;
52480;SDS011;38393;52.404;13.532;2023-03-23T14:28:22;3.60;;;1.90;;
52480;SDS011;38393;52.404;13.532;2023-03-23T14:30:52;2.92;;;1.90;;
52480;SDS011;38393;52.404;13.532;2023-03-23T14:33:18;3.60;;;2.03;;
52480;SDS011;38393;52.404;13.532;2023-03-23T14:35:45;3.50;;;1.90;;
52480;SDS011;38393;52.404;13.532;2023-03-23T14:38:17;4.17;;;2.00;;
52480;SDS011;38393;52.404;13.532;2023-03-23T14:40:45;4.80;;;2.03;;
52480;SDS011;38393;52.404;13.532;2023-03-23T14:43:13;4.10;;;2.13;;
52480;SDS011;38393;52.404;13.532;2023-03-23T14:45:42;3.00;;;1.70;;
52480;SDS011;38393;52.404;13.532;2023-03-23T14:48:08;3.77;;;1.90;;
52480;SDS011;38393;52.404;13.532;2023-03-23T14:50:39;3.97;;;1.90;;
52480;SDS011;38393;52.404;13.532;2023-03-23T14:55:47;3.10;;;1.83;;
52480;SDS011;38393;52.404;13.532;2023-03-23T14:58:16;4.00;;;1.90;;
52480;SDS011;38393;52.404;13.532;2023-03-23T15:00:46;4.37;;;2.00;;
52480;SDS011;38393;52.404;13.532;2023-03-23T15:03:16;4.60;;;1.60;;
52480;SDS011;38393;52.404;13.532;2023-03-23T15:05:46;5.70;;;1.73;;
52480;SDS011;38393;52.404;13.532;2023-03-23T15:08:18;2.97;;;1.83;;
52480;SDS011;38393;52.404;13.532;2023-03-23T15:10:59;2.50;;;1.90;;
52480;SDS011;38393;52.404;13.532;2023-03-23T15:13:49;2.50;;;1.87;;
52480;SDS011;38393;52.404;13.532;2023-03-23T15:16:23;3.30;;;1.70;;
52480;SDS011;38393;52.404;13.532;2023-03-23T15:19:01;2.40;;;1.73;;
52480;SDS011;38393;52.404;13.532;2023-03-23T15:21:30;2.57;;;1.70;;
52480;SDS011;38393;52.404;13.532;2023-03-23T15:26:51;5.03;;;1.73;;
52480;SDS011;38393;52.404;13.532;2023-03-23T15:29:18;3.07;;;1.73;;
52480;SDS011;38393;52.404;13.532;2023-03-23T15:31:52;2.83;;;1.73;;
52480;SDS011;38393;52.404;13.532;2023-03-23T15:34:30;4.20;;;1.50;;
52480;SDS011;38393;52.404;13.532;2023-03-23T15:37:00;7.00;;;1.73;;
52480;SDS011;38393;52.404;13.532;2023-03-23T15:39:27;4.07;;;1.53;;
52480;SDS011;38393;52.404;13.532;2023-03-23T15:41:54;3.40;;;1.63;;
52480;SDS011;38393;52.404;13.532;2023-03-23T15:44:28;2.93;;;1.53;;
52480;SDS011;38393;52.404;13.532;2023-03-23T15:47:03;3.17;;;1.57;;
52480;SDS011;38393;52.404;13.532;2023-03-23T15:49:38;4.07;;;1.73;;
52480;SDS011;38393;52.404;13.532;2023-03-23T15:52:06;2.93;;;1.50;;
52480;SDS011;38393;52.404;13.532;2023-03-23T15:54:34;2.70;;;1.57;;
52480;SDS011;38393;52.404;13.532;2023-03-23T15:56:59;5.03;;;1.70;;
52480;SDS011;38393;52.404;13.532;2023-03-23T15:59:25;3.43;;;1.50;;
52480;SDS011;38393;52.404;13.532;2023-03-23T16:01:51;2.77;;;2.00;;
52480;SDS011;38393;52.404;13.532;2023-03-23T16:04:17;5.83;;;1.50;;
52480;SDS011;38393;52.404;13.532;2023-03-23T16:06:43;3.07;;;1.77;;